Time;durP1;ratioP1;P1;durP2;ratioP2;P2;SDS_P1;SDS_P2;PMS_P1;PMS_P2;Temp;Humidity;BMP_temperature;BMP_pressure;BME280_temperature;BME280_humidity;BME280_pressure;Samples;Min_cycle;Max_cycle;Signal;HPM_P1;HPM_P2
2021/01/04 00:01:51;;;;;;;13.05;11.65;;;21.00;30.60;;;;;;4989499;28;20049;-54
2021/01/04 00:04:23;;;;;;;13.10;11.50;;;21.00;30.60;;;;;;4999047;28;20026;-54
2021/01/04 00:07:01;;;;;;;12.43;11.13;;;21.00;30.60;;;;;;4988115;28;20031;-54
2021/01/04 00:09:46;;;;;;;13.07;11.68;;;21.00;30.70;;;;;;4977229;28;20035;-54
2021/01/04 00:12:22;;;;;;;12.60;11.30;;;21.00;30.50;;;;;;4997073;28;20038;-53
2021/01/04 00:15:15;;;;;;;12.80;11.40;;;21.00;30.70;;;;;;4995662;28;20089;-53
2021/01/04 00:17:55;;;;;;;11.95;10.52;;;21.00;30.60;;;;;;4988794;28;20553;-53
2021/01/04 00:20:39;;;;;;;11.18;9.98;;;21.00;30.60;;;;;;4992963;28;20027;-54
2021/01/04 00:23:50;;;;;;;10.80;9.70;;;21.00;30.60;;;;;;4991268;28;20029;-54
2021/01/04 00:26:42;;;;;;;11.90;10.52;;;21.00;30.60;;;;;;4910057;28;20080;-54
2021/01/04 00:29:09;;;;;;;10.75;9.65;;;21.00;30.60;;;;;;4912865;29;20032;-54
2021/01/04 00:31:41;;;;;;;10.55;9.18;;;21.00;30.50;;;;;;4918752;29;20105;-54
2021/01/04 00:34:16;;;;;;;10.45;9.15;;;21.00;30.70;;;;;;4908481;29;20611;-55
2021/01/04 00:37:20;;;;;;;9.35;8.45;;;21.00;30.60;;;;;;4915776;29;20094;-55
2021/01/04 00:40:07;;;;;;;10.07;8.85;;;21.00;30.60;;;;;;4860196;29;20045;-55
2021/01/04 00:42:47;;;;;;;10.10;8.52;;;21.00;30.60;;;;;;4853936;29;20080;-54
2021/01/04 00:45:19;;;;;;;11.88;9.02;;;21.00;30.70;;;;;;4858797;29;20072;-54
2021/01/04 00:47:52;;;;;;;11.95;8.98;;;21.00;30.70;;;;;;4856488;29;20464;-54
2021/01/04 00:50:56;;;;;;;9.65;8.65;;;21.00;30.70;;;;;;4858715;29;20068;-54
2021/01/04 00:53:36;;;;;;;9.23;8.25;;;20.90;30.60;;;;;;4855263;29;20109;-54
2021/01/04 00:56:20;;;;;;;9.50;8.02;;;21.00;30.70;;;;;;4863160;29;20591;-54
2021/01/04 00:59:08;;;;;;;9.95;7.57;;;21.00;30.60;;;;;;4844613;29;20520;-54
2021/01/04 01:01:40;;;;;;;9.48;7.93;;;20.90;30.60;;;;;;4847924;29;20037;-54
2021/01/04 01:04:25;;;;;;;8.52;7.70;;;20.90;30.60;;;;;;4934730;29;20085;-54
2021/01/04 01:07:09;;;;;;;7.72;6.90;;;20.90;30.60;;;;;;4933534;29;20027;-54
2021/01/04 01:09:41;;;;;;;8.45;7.55;;;20.90;30.60;;;;;;4931709;29;20059;-54
2021/01/04 01:12:20;;;;;;;8.10;7.30;;;20.90;30.60;;;;;;4936619;29;20064;-54
2021/01/04 01:15:04;;;;;;;8.65;7.63;;;20.90;30.60;;;;;;4943892;28;20039;-53
2021/01/04 01:17:48;;;;;;;7.55;6.75;;;20.90;30.60;;;;;;4966964;28;20035;-53
2021/01/04 01:20:19;;;;;;;7.25;6.55;;;20.90;30.60;;;;;;4974347;28;20034;-54
2021/01/04 01:22:46;;;;;;;8.98;7.00;;;20.90;30.60;;;;;;4975557;28;20025;-54
2021/01/04 01:25:29;;;;;;;7.00;6.20;;;20.80;30.60;;;;;;4972887;28;20066;-55
2021/01/04 01:28:07;;;;;;;8.07;6.43;;;20.80;30.60;;;;;;4986192;28;20103;-54
2021/01/04 01:30:51;;;;;;;7.90;7.10;;;20.80;30.50;;;;;;4987665;28;20034;-54
2021/01/04 01:33:31;;;;;;;7.43;6.72;;;20.80;30.50;;;;;;4995037;28;20088;-54
2021/01/04 01:36:35;;;;;;;7.68;6.28;;;20.80;30.50;;;;;;4988184;28;20121;-54
2021/01/04 01:39:18;;;;;;;9.02;5.82;;;20.80;30.60;;;;;;4935985;28;20048;-54
2021/01/04 01:42:05;;;;;;;8.55;7.25;;;20.70;30.60;;;;;;4983163;28;20468;-54
2021/01/04 01:44:46;;;;;;;8.93;6.95;;;20.70;30.60;;;;;;4973201;28;20106;-54
2021/01/04 01:47:31;;;;;;;9.05;6.80;;;20.70;30.60;;;;;;4993708;28;20034;-54
2021/01/04 01:50:12;;;;;;;8.40;7.47;;;20.70;30.60;;;;;;4987829;28;20023;-54
2021/01/04 01:52:38;;;;;;;9.60;8.43;;;20.70;30.60;;;;;;4990475;28;20058;-55
2021/01/04 01:55:29;;;;;;;8.35;7.32;;;20.60;30.60;;;;;;4991843;28;20022;-55
2021/01/04 01:58:19;;;;;;;7.95;7.15;;;20.60;30.70;;;;;;4987671;28;20084;-55
2021/01/04 02:01:04;;;;;;;11.50;8.00;;;20.60;30.70;;;;;;4989334;28;20053;-55
2021/01/04 02:03:38;;;;;;;9.77;7.72;;;20.50;30.70;;;;;;4998561;28;20101;-55
2021/01/04 02:06:24;;;;;;;8.82;7.38;;;20.40;30.80;;;;;;4975759;28;20050;-55
2021/01/04 02:09:15;;;;;;;8.38;7.50;;;20.40;30.80;;;;;;4990496;28;20031;-55
2021/01/04 02:11:48;;;;;;;8.57;7.22;;;20.40;30.80;;;;;;4993875;28;20492;-55
2021/01/04 02:14:22;;;;;;;9.13;7.45;;;20.40;30.90;;;;;;4986783;28;20116;-55
2021/01/04 02:16:58;;;;;;;8.95;7.18;;;20.30;30.90;;;;;;4975522;28;20109;-54
2021/01/04 02:19:35;;;;;;;8.15;7.30;;;20.30;30.90;;;;;;4985580;28;20035;-54
2021/01/04 02:22:47;;;;;;;9.25;7.47;;;20.20;30.90;;;;;;4989346;28;20143;-54
2021/01/04 02:25:14;;;;;;;7.95;7.15;;;20.20;31.10;;;;;;4932529;28;20065;-54
2021/01/04 02:27:49;;;;;;;10.07;6.72;;;20.20;31.00;;;;;;4992993;28;20030;-54
2021/01/04 02:30:15;;;;;;;7.45;6.63;;;20.10;31.10;;;;;;4985610;28;20614;-54
2021/01/04 02:32:42;;;;;;;8.02;6.63;;;20.10;31.00;;;;;;4984342;28;20078;-54
2021/01/04 02:35:09;;;;;;;8.43;6.63;;;20.00;31.00;;;;;;4989757;28;20428;-54
2021/01/04 02:37:35;;;;;;;6.72;6.03;;;20.00;31.10;;;;;;4990397;28;20426;-54
2021/01/04 02:40:08;;;;;;;7.93;6.03;;;20.00;31.10;;;;;;4985519;28;20389;-54
2021/01/04 02:42:44;;;;;;;8.25;6.30;;;19.90;31.10;;;;;;4998360;28;20084;-54
2021/01/04 02:45:27;;;;;;;7.35;5.78;;;19.90;31.20;;;;;;4994310;28;20099;-54
2021/01/04 02:47:56;;;;;;;6.93;5.43;;;19.90;31.40;;;;;;4991621;28;20030;-54
2021/01/04 02:50:45;;;;;;;6.28;5.63;;;19.90;31.30;;;;;;5000182;28;20038;-54
2021/01/04 02:53:36;;;;;;;6.22;5.55;;;19.80;31.30;;;;;;4990825;28;20030;-54
2021/01/04 02:56:08;;;;;;;5.30;4.80;;;19.80;31.30;;;;;;4992070;28;20058;-54
2021/01/04 02:59:07;;;;;;;5.30;4.50;;;19.80;31.40;;;;;;4979955;28;20042;-54
2021/01/04 03:02:04;;;;;;;5.32;4.82;;;19.70;31.40;;;;;;4985971;28;20039;-54
2021/01/04 03:04:32;;;;;;;6.00;5.07;;;19.70;31.40;;;;;;4991039;28;20041;-54
2021/01/04 03:07:10;;;;;;;5.10;4.43;;;19.70;31.40;;;;;;4990820;28;20088;-54
2021/01/04 03:09:36;;;;;;;5.45;4.95;;;19.60;31.50;;;;;;4996720;28;20022;-54
2021/01/04 03:12:11;;;;;;;5.78;5.10;;;19.60;31.50;;;;;;4989230;28;20023;-54
2021/01/04 03:15:01;;;;;;;6.75;5.20;;;19.60;31.70;;;;;;4991549;28;20367;-54
2021/01/04 03:17:42;;;;;;;6.50;5.37;;;19.60;31.70;;;;;;4999816;28;20034;-54
2021/01/04 03:20:15;;;;;;;5.40;4.78;;;19.50;31.60;;;;;;4986727;28;20026;-54
2021/01/04 03:22:47;;;;;;;7.13;5.10;;;19.50;31.70;;;;;;4983417;28;20473;-54
2021/01/04 03:25:30;;;;;;;6.63;4.75;;;19.50;31.80;;;;;;4985333;28;20058;-54
2021/01/04 03:27:56;;;;;;;5.50;4.47;;;19.40;31.70;;;;;;4989142;28;20029;-54
2021/01/04 03:30:23;;;;;;;5.75;5.15;;;19.40;31.70;;;;;;4992052;28;20030;-54
2021/01/04 03:32:50;;;;;;;5.43;4.40;;;19.40;31.70;;;;;;4986919;28;20049;-54
2021/01/04 03:35:16;;;;;;;6.95;4.82;;;19.40;31.80;;;;;;4983598;28;20093;-54
2021/01/04 03:37:43;;;;;;;5.35;4.72;;;19.30;31.70;;;;;;4989849;28;20034;-54
2021/01/04 03:40:10;;;;;;;5.70;4.75;;;19.30;31.80;;;;;;4971804;28;20113;-54
2021/01/04 03:42:36;;;;;;;4.40;3.90;;;19.30;31.80;;;;;;4983267;28;20023;-54
2021/01/04 03:45:04;;;;;;;7.00;3.85;;;19.20;31.80;;;;;;4994510;28;20030;-54
2021/01/04 03:47:30;;;;;;;4.57;4.18;;;19.20;31.80;;;;;;4989646;28;20027;-53
2021/01/04 03:49:56;;;;;;;4.80;4.07;;;19.20;31.80;;;;;;4989394;28;20026;-53
2021/01/04 03:52:22;;;;;;;4.88;3.70;;;19.20;31.90;;;;;;4988665;28;20030;-54
2021/01/04 03:54:48;;;;;;;4.35;3.72;;;19.10;31.90;;;;;;4991363;28;20457;-54
2021/01/04 03:57:13;;;;;;;5.65;3.97;;;19.10;32.00;;;;;;4991845;28;20109;-54
2021/01/04 03:59:41;;;;;;;4.78;4.07;;;19.10;32.00;;;;;;5002102;28;20377;-54
2021/01/04 04:02:07;;;;;;;6.13;4.22;;;19.10;32.10;;;;;;4978996;28;20473;-54
2021/01/04 04:04:33;;;;;;;4.22;3.83;;;19.00;32.10;;;;;;4990609;28;20052;-54
2021/01/04 04:06:59;;;;;;;4.70;4.22;;;19.00;32.20;;;;;;4969511;28;20069;-54
2021/01/04 04:09:25;;;;;;;6.18;4.05;;;19.00;32.20;;;;;;4990012;28;20043;-54
2021/01/04 04:11:51;;;;;;;3.42;3.13;;;19.00;32.30;;;;;;4987737;28;20038;-54
2021/01/04 04:14:18;;;;;;;3.90;3.50;;;19.00;32.30;;;;;;4983903;28;20085;-53
2021/01/04 04:16:46;;;;;;;4.75;3.70;;;18.90;32.30;;;;;;4987536;28;20162;-53
2021/01/04 04:19:13;;;;;;;3.83;3.40;;;18.90;32.40;;;;;;4992901;28;20041;-53
2021/01/04 04:21:39;;;;;;;4.53;3.67;;;18.90;32.40;;;;;;4990294;28;20100;-53
2021/01/04 04:24:05;;;;;;;5.13;3.42;;;18.90;32.40;;;;;;4979503;28;20544;-53
2021/01/04 04:26:31;;;;;;;4.72;3.10;;;18.90;32.50;;;;;;4982491;28;20038;-53
2021/01/04 04:28:58;;;;;;;4.30;3.22;;;18.90;32.50;;;;;;4993728;28;20041;-53
2021/01/04 04:31:24;;;;;;;3.55;3.00;;;18.90;32.60;;;;;;4995426;28;20046;-53
2021/01/04 04:33:51;;;;;;;4.22;3.20;;;18.80;32.60;;;;;;4954749;28;20027;-53
2021/01/04 04:36:25;;;;;;;3.33;2.88;;;18.80;32.60;;;;;;4968656;28;20138;-54
2021/01/04 04:38:52;;;;;;;4.03;3.05;;;18.80;32.70;;;;;;4996277;28;20031;-54
2021/01/04 04:41:28;;;;;;;4.40;2.90;;;18.80;32.70;;;;;;4988781;28;20436;-54
2021/01/04 04:44:05;;;;;;;4.82;3.13;;;18.80;32.90;;;;;;4991743;28;20022;-54
2021/01/04 04:46:40;;;;;;;4.20;3.08;;;18.80;32.90;;;;;;4977654;28;20077;-53
2021/01/04 04:49:21;;;;;;;3.78;3.17;;;18.80;32.90;;;;;;4994738;28;20030;-53
2021/01/04 04:52:13;;;;;;;3.67;2.67;;;18.80;33.00;;;;;;4987765;28;20050;-53
2021/01/04 04:55:01;;;;;;;4.28;3.17;;;18.70;32.80;;;;;;4992438;28;20058;-53
2021/01/04 04:57:45;;;;;;;3.17;2.88;;;18.70;32.90;;;;;;4991727;28;20113;-53
2021/01/04 05:00:42;;;;;;;3.47;2.90;;;18.70;32.90;;;;;;4996713;28;20034;-54
2021/01/04 05:03:37;;;;;;;4.80;2.90;;;18.70;33.10;;;;;;5003507;28;20031;-55
2021/01/04 05:06:24;;;;;;;3.38;3.08;;;18.70;33.10;;;;;;4963259;28;20045;-53
2021/01/04 05:08:53;;;;;;;3.65;2.72;;;18.70;33.10;;;;;;4994757;28;20030;-54
2021/01/04 05:11:23;;;;;;;3.42;3.05;;;18.70;33.10;;;;;;4988960;28;20038;-53
2021/01/04 05:13:52;;;;;;;4.43;2.70;;;18.60;33.20;;;;;;4992511;28;20022;-55
2021/01/04 05:16:53;;;;;;;5.68;2.90;;;18.60;33.20;;;;;;4987540;28;20044;-54
2021/01/04 05:19:26;;;;;;;4.82;3.05;;;18.60;33.30;;;;;;4970771;28;20031;-54
2021/01/04 05:22:27;;;;;;;4.45;2.67;;;18.60;33.30;;;;;;4990506;28;20856;-54
2021/01/04 05:25:09;;;;;;;4.35;2.50;;;18.60;33.30;;;;;;4988174;28;20058;-54
2021/01/04 05:27:54;;;;;;;3.22;2.63;;;18.60;33.30;;;;;;4975514;28;20185;-54
2021/01/04 05:30:36;;;;;;;2.97;2.50;;;18.60;33.30;;;;;;4973483;28;20026;-55
2021/01/04 05:33:16;;;;;;;2.83;2.50;;;18.60;33.40;;;;;;4990941;28;20023;-55
2021/01/04 05:35:45;;;;;;;3.63;2.67;;;18.50;33.40;;;;;;4993753;28;20436;-56
2021/01/04 05:38:37;;;;;;;3.63;2.35;;;18.50;33.40;;;;;;4975108;28;20030;-54
2021/01/04 05:41:29;;;;;;;3.08;2.75;;;18.50;33.40;;;;;;4990036;28;20023;-56
2021/01/04 05:44:37;;;;;;;2.97;2.35;;;18.50;33.40;;;;;;4965830;28;20044;-55
2021/01/04 05:47:32;;;;;;;3.53;2.47;;;18.50;33.30;;;;;;4989796;28;20045;-55
2021/01/04 05:50:17;;;;;;;3.03;2.20;;;18.50;33.50;;;;;;4977240;28;20023;-55
2021/01/04 05:52:45;;;;;;;2.47;2.22;;;18.50;33.50;;;;;;4992715;28;20038;-55
2021/01/04 05:55:14;;;;;;;3.08;2.70;;;18.50;33.50;;;;;;4988289;28;20042;-54
2021/01/04 05:57:48;;;;;;;4.28;2.65;;;18.50;33.60;;;;;;4984202;28;20030;-54
2021/01/04 06:00:36;;;;;;;2.40;2.20;;;18.40;33.60;;;;;;4987059;28;20058;-54
2021/01/04 06:03:11;;;;;;;3.92;2.40;;;18.40;33.60;;;;;;4984207;28;20381;-54
2021/01/04 06:05:37;;;;;;;3.72;3.00;;;18.40;33.70;;;;;;4992649;28;20061;-55
2021/01/04 06:08:05;;;;;;;2.70;2.33;;;18.50;33.70;;;;;;4989908;28;20022;-55
2021/01/04 06:10:32;;;;;;;2.50;2.30;;;18.40;33.70;;;;;;4974330;28;20035;-53
2021/01/04 06:13:01;;;;;;;2.95;2.33;;;18.40;33.70;;;;;;4992569;28;20030;-55
2021/01/04 06:15:33;;;;;;;2.15;1.92;;;18.40;33.70;;;;;;4963914;28;20516;-55
2021/01/04 06:18:04;;;;;;;3.38;2.67;;;18.40;33.80;;;;;;4971902;28;20075;-55
2021/01/04 06:20:42;;;;;;;2.72;2.33;;;18.40;33.80;;;;;;4978349;28;20031;-55
2021/01/04 06:23:16;;;;;;;3.03;2.63;;;18.40;33.90;;;;;;4992112;28;20026;-54
2021/01/04 06:25:43;;;;;;;3.80;2.45;;;18.30;33.90;;;;;;4970335;28;20062;-54
2021/01/04 06:28:09;;;;;;;3.00;2.20;;;18.40;33.80;;;;;;4987742;28;20035;-54
2021/01/04 06:30:38;;;;;;;2.05;1.80;;;18.40;33.80;;;;;;4988304;28;20038;-56
2021/01/04 06:33:07;;;;;;;2.40;2.20;;;18.40;33.90;;;;;;4986399;28;20027;-54
2021/01/04 06:35:34;;;;;;;2.85;2.13;;;18.40;34.00;;;;;;4985847;28;20491;-55
2021/01/04 06:38:29;;;;;;;3.00;2.30;;;18.30;33.90;;;;;;4972006;28;20092;-54
2021/01/04 06:40:57;;;;;;;4.65;2.53;;;18.30;33.90;;;;;;4893689;29;20088;-55
2021/01/04 06:43:35;;;;;;;3.78;2.30;;;18.30;33.90;;;;;;4872929;29;20080;-55
2021/01/04 06:46:19;;;;;;;2.15;1.95;;;18.30;34.00;;;;;;4890362;29;20033;-55
2021/01/04 06:48:45;;;;;;;3.05;2.33;;;18.30;34.00;;;;;;4893857;29;20049;-55
2021/01/04 06:51:19;;;;;;;2.13;1.92;;;18.30;34.00;;;;;;4894326;29;20087;-55
2021/01/04 06:54:22;;;;;;;2.75;2.50;;;18.30;34.10;;;;;;4880444;29;20466;-55
2021/01/04 06:57:09;;;;;;;2.92;2.58;;;18.30;34.10;;;;;;4891007;29;20044;-55
2021/01/04 06:59:53;;;;;;;2.40;2.20;;;18.30;34.00;;;;;;4889533;29;20595;-55
2021/01/04 07:02:40;;;;;;;2.88;2.58;;;18.30;34.10;;;;;;4895215;29;20033;-55
2021/01/04 07:05:33;;;;;;;2.88;2.55;;;18.30;34.20;;;;;;4894150;29;20048;-55
2021/01/04 07:08:17;;;;;;;3.80;2.83;;;18.30;34.20;;;;;;4899471;29;20048;-55
2021/01/04 07:10:52;;;;;;;2.88;2.40;;;18.30;34.10;;;;;;4889428;29;20056;-55
2021/01/04 07:13:41;;;;;;;3.85;3.13;;;18.20;34.10;;;;;;4894900;29;20107;-55
2021/01/04 07:16:29;;;;;;;4.95;2.33;;;18.20;34.20;;;;;;4889933;29;20491;-55
2021/01/04 07:19:11;;;;;;;6.05;2.70;;;18.20;34.20;;;;;;4986136;28;20134;-55
2021/01/04 07:21:55;;;;;;;4.22;2.88;;;18.20;34.30;;;;;;4989485;28;20034;-55
2021/01/04 07:24:43;;;;;;;3.50;2.70;;;18.20;34.40;;;;;;4983224;28;20113;-55
2021/01/04 07:27:24;;;;;;;7.00;2.88;;;18.20;34.30;;;;;;4992812;28;20058;-54
2021/01/04 07:30:11;;;;;;;2.63;2.25;;;18.10;34.30;;;;;;4983775;28;20096;-55
2021/01/04 07:32:49;;;;;;;6.28;3.78;;;18.20;34.30;;;;;;4996576;28;20030;-55
2021/01/04 07:35:21;;;;;;;5.32;3.83;;;18.10;34.40;;;;;;4968130;28;20113;-53
2021/01/04 07:38:20;;;;;;;6.03;4.18;;;18.20;34.40;;;;;;4990590;28;20070;-57
2021/01/04 07:41:40;;;;;;;3.80;3.33;;;18.10;34.40;;;;;;4981643;28;20031;-53
2021/01/04 07:44:41;;;;;;;5.15;3.80;;;18.10;34.30;;;;;;4909819;29;20032;-56
2021/01/04 07:47:12;;;;;;;5.55;4.18;;;18.10;34.40;;;;;;4903308;29;20043;-48
2021/01/04 07:49:41;;;;;;;5.93;3.72;;;18.10;34.40;;;;;;4908499;29;20553;-49
2021/01/04 07:52:37;;;;;;;3.80;3.08;;;18.10;34.50;;;;;;4916823;29;20066;-48
2021/01/04 07:55:12;;;;;;;5.22;3.28;;;18.10;34.70;;;;;;4909670;29;20399;-47
2021/01/04 07:58:00;;;;;;;7.07;3.50;;;18.10;34.80;;;;;;4910773;29;20036;-48
2021/01/04 08:01:01;;;;;;;5.55;3.28;;;18.10;34.70;;;;;;4911108;29;20032;-48
2021/01/04 08:03:44;;;;;;;4.32;3.55;;;18.10;34.80;;;;;;4916293;29;20040;-47
2021/01/04 08:06:29;;;;;;;5.68;4.22;;;18.10;34.80;;;;;;4913356;29;20167;-48
2021/01/04 08:09:05;;;;;;;6.03;3.95;;;18.10;34.70;;;;;;4913497;29;20048;-48
2021/01/04 08:11:54;;;;;;;5.93;3.65;;;18.10;34.90;;;;;;4915849;29;20511;-50
2021/01/04 08:14:55;;;;;;;8.90;4.50;;;18.10;34.80;;;;;;4952642;28;20046;-50
2021/01/04 08:17:39;;;;;;;9.80;4.60;;;18.00;34.70;;;;;;4978139;28;20045;-50
2021/01/04 08:20:07;;;;;;;7.38;4.88;;;18.00;34.70;;;;;;4985110;28;20051;-50
2021/01/04 08:22:48;;;;;;;8.30;5.13;;;18.10;34.80;;;;;;4993561;28;20092;-48
2021/01/04 08:25:29;;;;;;;;;;;18.10;34.90;;;;;;4993487;28;20046;-49
2021/01/04 08:28:07;;;;;;;9.23;6.43;;;18.10;34.60;;;;;;4993247;28;19913;-49
2021/01/04 08:30:42;;;;;;;9.20;6.78;;;18.20;34.80;;;;;;4991654;28;20030;-49
2021/01/04 08:33:40;;;;;;;9.25;7.45;;;18.20;35.00;;;;;;4993446;28;20038;-49
2021/01/04 08:36:21;;;;;;;9.65;7.15;;;18.20;35.10;;;;;;4991678;28;20034;-56
2021/01/04 08:38:50;;;;;;;10.18;7.60;;;18.20;35.20;;;;;;4998059;28;20041;-57
2021/01/04 08:41:15;;;;;;;10.05;7.20;;;18.20;35.10;;;;;;5000653;28;20030;-56
2021/01/04 08:43:47;;;;;;;9.93;6.85;;;18.30;35.20;;;;;;4975905;28;20452;-56
2021/01/04 08:46:19;;;;;;;12.77;8.68;;;18.30;35.40;;;;;;4992716;28;20022;-57
2021/01/04 08:48:45;;;;;;;16.67;11.68;;;18.30;35.40;;;;;;4995085;28;20065;-54
2021/01/04 08:51:36;;;;;;;17.67;11.15;;;18.30;35.30;;;;;;4996259;28;20111;-55
2021/01/04 08:54:19;;;;;;;15.38;13.57;;;18.40;35.40;;;;;;4964475;28;20038;-55
2021/01/04 08:56:51;;;;;;;23.88;13.88;;;18.40;35.40;;;;;;4987380;28;20041;-55
2021/01/04 08:59:30;;;;;;;18.98;13.98;;;18.50;35.40;;;;;;4989237;28;20035;-57
2021/01/04 09:01:59;;;;;;;17.65;13.27;;;18.50;35.50;;;;;;4992306;28;20033;-55
2021/01/04 09:04:57;;;;;;;17.40;13.63;;;18.50;35.30;;;;;;4993105;28;20040;-56
2021/01/04 09:07:23;;;;;;;17.67;13.05;;;18.50;35.30;;;;;;4998670;28;20177;-56
2021/01/04 09:09:52;;;;;;;19.23;15.35;;;18.60;35.20;;;;;;4973740;28;20027;-58
2021/01/04 09:12:38;;;;;;;19.38;14.50;;;18.60;35.20;;;;;;4980583;28;20035;-56
2021/01/04 09:15:13;;;;;;;14.57;13.02;;;18.60;35.20;;;;;;4999031;28;20034;-56
2021/01/04 09:17:50;;;;;;;17.45;13.85;;;18.60;35.00;;;;;;4956779;28;20034;-55
2021/01/04 09:20:25;;;;;;;15.45;13.30;;;18.60;35.00;;;;;;4992510;28;20031;-57
2021/01/04 09:23:19;;;;;;;17.92;14.02;;;18.60;35.00;;;;;;4994846;28;20030;-55
2021/01/04 09:25:53;;;;;;;14.02;12.10;;;18.70;35.10;;;;;;4983764;28;20058;-56
2021/01/04 09:28:23;;;;;;;16.25;12.30;;;18.70;35.00;;;;;;4988663;28;20034;-58
2021/01/04 09:30:51;;;;;;;16.25;13.55;;;18.70;35.00;;;;;;4986566;28;20026;-57
2021/01/04 09:33:19;;;;;;;17.08;12.25;;;18.70;34.90;;;;;;4997205;28;20042;-58
2021/01/04 09:35:46;;;;;;;16.38;12.45;;;18.80;34.90;;;;;;4992501;28;20075;-56
2021/01/04 09:38:25;;;;;;;16.40;12.13;;;18.80;34.80;;;;;;4988479;28;20022;-56
2021/01/04 09:40:54;;;;;;;13.77;12.32;;;18.80;34.80;;;;;;4997350;28;20015;-56
2021/01/04 09:43:26;;;;;;;13.63;12.18;;;18.80;34.70;;;;;;4986361;28;20034;-56
2021/01/04 09:46:06;;;;;;;14.73;13.05;;;18.80;34.70;;;;;;4986913;28;20058;-55
2021/01/04 09:48:56;;;;;;;16.30;12.60;;;18.80;34.70;;;;;;4990612;28;20035;-54
2021/01/04 09:51:32;;;;;;;14.68;12.52;;;18.80;34.70;;;;;;4983160;28;20047;-56
2021/01/04 09:54:02;;;;;;;14.73;11.55;;;18.80;34.60;;;;;;4986500;28;20385;-54
2021/01/04 09:56:38;;;;;;;12.95;11.52;;;18.90;34.60;;;;;;4986373;28;20030;-55
2021/01/04 09:59:18;;;;;;;13.27;11.60;;;18.90;34.60;;;;;;4994684;28;20544;-55
2021/01/04 10:01:54;;;;;;;12.98;10.80;;;18.90;34.60;;;;;;4977110;28;20054;-55
2021/01/04 10:04:32;;;;;;;14.82;11.32;;;18.90;35.20;;;;;;4987087;28;20039;-55
2021/01/04 10:07:03;;;;;;;14.23;10.35;;;18.90;34.50;;;;;;4981780;28;20022;-57
2021/01/04 10:09:33;;;;;;;10.80;9.10;;;18.90;34.50;;;;;;4984765;28;20039;-57
2021/01/04 10:12:02;;;;;;;12.90;10.55;;;18.90;34.50;;;;;;4992927;28;20469;-54
2021/01/04 10:14:28;;;;;;;13.43;10.65;;;18.90;34.40;;;;;;4986742;28;20062;-54
2021/01/04 10:16:57;;;;;;;13.18;11.77;;;18.90;34.40;;;;;;4989947;28;20066;-56
2021/01/04 10:19:34;;;;;;;11.63;9.82;;;18.90;34.40;;;;;;4983861;28;20034;-54
2021/01/04 10:22:23;;;;;;;11.70;8.82;;;18.80;34.40;;;;;;4985104;28;20023;-54
2021/01/04 10:24:52;;;;;;;13.68;8.90;;;18.90;34.40;;;;;;4987587;28;20026;-54
2021/01/04 10:27:23;;;;;;;9.90;7.50;;;18.90;34.30;;;;;;4981637;28;20531;-56
2021/01/04 10:29:52;;;;;;;8.73;6.03;;;18.90;34.30;;;;;;4990208;28;20108;-56
2021/01/04 10:32:31;;;;;;;10.40;5.65;;;18.90;34.20;;;;;;4983755;28;20026;-53
2021/01/04 10:34:58;;;;;;;7.45;6.05;;;18.90;34.20;;;;;;4981543;28;20484;-54
2021/01/04 10:37:34;;;;;;;6.93;5.00;;;18.90;34.10;;;;;;4987773;28;20092;-53
2021/01/04 10:40:06;;;;;;;7.60;5.45;;;18.90;34.10;;;;;;4988506;28;20035;-56
2021/01/04 10:42:33;;;;;;;7.43;5.05;;;19.00;34.10;;;;;;4953057;28;20026;-56
2021/01/04 10:45:04;;;;;;;6.80;5.35;;;19.00;34.10;;;;;;4984310;28;20053;-54
2021/01/04 10:47:45;;;;;;;8.20;5.95;;;19.00;34.10;;;;;;4985941;28;20038;-53
2021/01/04 10:50:31;;;;;;;9.43;5.72;;;19.10;34.20;;;;;;4986399;28;20035;-54
2021/01/04 10:53:01;;;;;;;5.15;4.03;;;19.20;34.30;;;;;;4988283;28;20080;-54
2021/01/04 10:55:30;;;;;;;5.45;4.00;;;19.30;34.10;;;;;;4972499;28;20687;-53
2021/01/04 10:58:08;;;;;;;6.47;4.07;;;19.50;33.90;;;;;;4981229;28;20066;-54
2021/01/04 11:00:38;;;;;;;4.95;4.05;;;19.70;33.60;;;;;;4990794;28;20473;-53
2021/01/04 11:03:13;;;;;;;3.55;3.05;;;19.90;33.40;;;;;;4981842;28;20031;-54
2021/01/04 11:05:41;;;;;;;4.43;3.25;;;20.10;33.10;;;;;;4990590;28;20090;-53
2021/01/04 11:08:22;;;;;;;9.77;7.63;;;20.30;32.90;;;;;;4990020;28;20029;-55
2021/01/04 11:10:54;;;;;;;18.33;12.68;;;20.50;32.70;;;;;;4988519;28;20026;-54
2021/01/04 11:13:33;;;;;;;12.60;10.48;;;20.60;32.70;;;;;;4964622;28;20855;-56
2021/01/04 11:16:08;;;;;;;15.15;13.15;;;20.80;32.70;;;;;;4985766;28;20034;-54
2021/01/04 11:18:52;;;;;;;11.63;10.35;;;21.00;32.50;;;;;;4990159;28;20041;-54
2021/01/04 11:21:19;;;;;;;16.63;11.75;;;21.10;32.20;;;;;;4986516;28;20117;-54
2021/01/04 11:23:46;;;;;;;12.40;9.35;;;21.20;32.40;;;;;;4978014;28;20061;-56
2021/01/04 11:26:13;;;;;;;19.65;11.50;;;21.30;32.20;;;;;;4987826;28;20050;-57
2021/01/04 11:28:39;;;;;;;15.57;10.48;;;21.40;32.30;;;;;;4989336;28;20022;-54
2021/01/04 11:33:26;;;;;;;27.15;21.73;;;21.70;32.20;;;;;;5041140;28;20425;-52
2021/01/04 11:35:53;;;;;;;22.10;19.40;;;21.90;31.80;;;;;;5048730;28;20127;-51
2021/01/04 11:38:20;;;;;;;23.52;17.42;;;22.00;31.50;;;;;;5046013;28;20059;-53
2021/01/04 11:40:46;;;;;;;33.30;22.75;;;22.10;31.30;;;;;;5045214;28;20029;-53
2021/01/04 11:43:14;;;;;;;16.05;13.48;;;22.20;31.20;;;;;;5043207;28;20025;-52
2021/01/04 11:45:40;;;;;;;32.00;25.60;;;22.20;30.80;;;;;;5044458;28;20017;-53
2021/01/04 11:48:07;;;;;;;25.90;17.88;;;22.30;30.70;;;;;;5058552;28;20391;-53
2021/01/04 11:50:33;;;;;;;11.23;7.93;;;22.40;30.60;;;;;;5040135;28;20387;-53
2021/01/04 11:52:59;;;;;;;17.48;8.75;;;22.50;30.10;;;;;;5036773;28;20029;-53
2021/01/04 11:55:25;;;;;;;14.45;10.05;;;22.60;29.80;;;;;;5039919;28;20079;-54
2021/01/04 11:57:51;;;;;;;8.65;7.53;;;22.80;30.00;;;;;;5041052;28;20045;-54
2021/01/04 12:00:21;;;;;;;10.73;9.63;;;23.00;29.80;;;;;;5042740;28;20479;-55
2021/01/04 12:02:47;;;;;;;12.10;10.38;;;23.30;29.80;;;;;;5042813;28;20029;-55
2021/01/04 12:05:15;;;;;;;9.60;7.97;;;23.60;29.90;;;;;;5046209;28;20017;-56
2021/01/04 12:07:41;;;;;;;14.43;10.77;;;24.00;29.60;;;;;;5047494;28;20325;-54
2021/01/04 12:10:09;;;;;;;12.60;10.18;;;24.50;29.50;;;;;;5043601;28;20037;-53
2021/01/04 12:12:35;;;;;;;12.68;9.60;;;24.90;29.40;;;;;;5046798;28;20055;-53
2021/01/04 12:15:02;;;;;;;13.35;9.00;;;25.40;29.20;;;;;;5042860;28;20060;-55
2021/01/04 12:17:29;;;;;;;11.45;9.55;;;25.90;29.00;;;;;;5045331;28;20443;-55
2021/01/04 12:19:54;;;;;;;12.57;9.38;;;26.40;28.80;;;;;;5042802;28;20090;-55
2021/01/04 12:22:20;;;;;;;9.18;8.27;;;26.80;28.60;;;;;;5044744;28;20029;-55
2021/01/04 12:24:47;;;;;;;8.25;7.35;;;27.30;28.40;;;;;;5044703;28;20037;-54
2021/01/04 12:27:16;;;;;;;18.15;16.27;;;27.80;28.20;;;;;;5044578;28;20034;-55
2021/01/04 12:29:46;;;;;;;21.25;17.65;;;28.20;27.90;;;;;;5044241;28;20477;-53
2021/01/04 12:32:14;;;;;;;22.08;18.15;;;28.60;27.50;;;;;;5028488;28;20375;-53
2021/01/04 12:34:40;;;;;;;25.67;22.65;;;29.10;27.50;;;;;;5039580;28;20451;-52
2021/01/04 12:37:07;;;;;;;23.83;21.45;;;29.50;27.30;;;;;;5045462;28;20044;-53
2021/01/04 12:39:33;;;;;;;26.08;22.80;;;29.80;27.00;;;;;;5045715;28;20029;-53
2021/01/04 12:41:59;;;;;;;23.15;20.75;;;30.20;26.70;;;;;;5042183;28;20038;-54
2021/01/04 12:44:25;;;;;;;22.33;20.02;;;30.50;26.50;;;;;;5017389;28;20037;-53
2021/01/04 12:46:52;;;;;;;15.90;14.30;;;30.90;26.20;;;;;;5032804;28;20490;-54
2021/01/04 12:49:20;;;;;;;20.75;16.95;;;31.20;25.60;;;;;;5028050;28;20052;-54
2021/01/04 12:51:55;;;;;;;18.77;16.35;;;31.50;26.00;;;;;;5034105;28;20034;-54
2021/01/04 12:54:26;;;;;;;17.45;15.85;;;31.80;25.20;;;;;;5028789;28;20126;-54
2021/01/04 12:56:55;;;;;;;15.57;14.07;;;32.10;25.20;;;;;;5030118;28;20116;-53
2021/01/04 12:59:23;;;;;;;13.25;11.93;;;32.40;25.10;;;;;;5026030;28;20581;-55
2021/01/04 13:01:53;;;;;;;13.23;11.98;;;32.70;24.90;;;;;;5026202;28;20049;-53
2021/01/04 13:04:20;;;;;;;13.27;11.98;;;33.00;24.80;;;;;;5018945;28;20025;-55
2021/01/04 13:06:47;;;;;;;11.50;10.40;;;33.20;24.60;;;;;;5033144;28;20033;-55
2021/01/04 13:09:14;;;;;;;12.35;11.15;;;33.40;24.40;;;;;;5028325;28;20040;-54
2021/01/04 13:11:48;;;;;;;11.60;10.50;;;33.60;24.30;;;;;;5029581;28;20029;-55
2021/01/04 13:14:15;;;;;;;11.10;10.13;;;33.80;24.00;;;;;;5027621;28;20120;-55
2021/01/04 13:16:42;;;;;;;12.18;10.90;;;34.00;24.10;;;;;;5029397;28;20014;-55
2021/01/04 13:19:10;;;;;;;11.88;10.68;;;34.10;24.00;;;;;;5025246;28;20116;-54
2021/01/04 13:21:37;;;;;;;11.23;10.13;;;34.20;23.90;;;;;;5026978;28;20037;-55
2021/01/04 13:24:07;;;;;;;11.63;10.50;;;34.10;23.90;;;;;;5038408;28;20025;-55
2021/01/04 13:26:40;;;;;;;10.60;9.63;;;34.00;23.70;;;;;;5028042;28;20569;-56
2021/01/04 13:29:07;;;;;;;10.05;9.15;;;33.90;23.80;;;;;;5029669;28;20042;-55